createdAt,value
2023-02-11T00:00:21.862Z,40.63
2023-02-11T00:02:48.492Z,61.67
2023-02-11T00:05:15.627Z,54.65
2023-02-11T00:07:42.257Z,54.17
2023-02-11T00:10:09.390Z,55.28
2023-02-11T00:12:37.388Z,56.15
2023-02-11T00:15:06.008Z,52.28
2023-02-11T00:17:32.682Z,49.45
2023-02-11T00:19:59.422Z,57.40
2023-02-11T00:22:26.184Z,49.22
2023-02-11T00:24:52.842Z,48.85
2023-02-11T00:27:19.589Z,51.92
2023-02-11T00:29:46.348Z,56.15
2023-02-11T00:32:13.020Z,55.92
2023-02-11T00:34:39.703Z,53.08
2023-02-11T00:37:06.727Z,43.53
2023-02-11T00:39:33.400Z,44.30
2023-02-11T00:42:00.229Z,48.78
2023-02-11T00:44:26.895Z,47.65
2023-02-11T00:46:53.537Z,47.10
2023-02-11T00:49:20.296Z,53.70
2023-02-11T00:51:46.992Z,34.70
2023-02-11T00:54:13.646Z,51.83
2023-02-11T00:56:40.271Z,41.97
2023-02-11T00:59:06.942Z,46.20
2023-02-11T01:01:34.565Z,37.05
2023-02-11T01:04:01.298Z,46.80
2023-02-11T01:06:27.935Z,49.47
2023-02-11T01:08:54.663Z,51.15
2023-02-11T01:11:21.840Z,43.25
2023-02-11T01:13:49.870Z,49.13
2023-02-11T01:16:18.292Z,48.85
2023-02-11T01:18:46.062Z,48.85
2023-02-11T01:21:12.772Z,41.92
2023-02-11T01:23:39.469Z,47.42
2023-02-11T01:26:06.150Z,42.45
2023-02-11T01:28:33.464Z,51.67
2023-02-11T01:31:03.635Z,50.38
2023-02-11T01:33:30.511Z,41.33
2023-02-11T01:36:01.463Z,52.28
2023-02-11T01:38:28.174Z,44.60
2023-02-11T01:40:58.181Z,51.97
2023-02-11T01:43:27.248Z,50.38
2023-02-11T01:46:04.463Z,54.08
2023-02-11T01:48:38.698Z,45.33
2023-02-11T01:51:20.870Z,49.83
2023-02-11T01:56:55.956Z,40.95
2023-02-11T01:59:26.809Z,51.53
2023-02-11T02:01:59.306Z,49.20
2023-02-11T02:04:31.546Z,43.35
2023-02-11T02:07:06.354Z,47.60
2023-02-11T02:09:39.623Z,53.38
2023-02-11T02:12:06.479Z,43.10
2023-02-11T02:14:33.180Z,41.30
2023-02-11T02:16:59.877Z,47.30
2023-02-11T02:20:09.057Z,48.50
2023-02-11T02:22:56.220Z,44.55
2023-02-11T02:25:48.117Z,45.25
2023-02-11T02:28:44.968Z,40.35
2023-02-11T02:31:50.648Z,42.83
2023-02-11T02:34:29.106Z,47.80
2023-02-11T02:37:04.446Z,47.85
2023-02-11T02:39:35.588Z,49.20
2023-02-11T02:42:03.440Z,45.15
2023-02-11T02:44:31.005Z,44.97
2023-02-11T02:46:57.852Z,45.60
2023-02-11T02:49:24.578Z,46.35
2023-02-11T02:52:01.863Z,39.75
2023-02-11T02:54:41.176Z,47.17
2023-02-11T02:57:21.139Z,44.95
2023-02-11T03:00:07.576Z,40.58
2023-02-11T03:02:36.988Z,29.75
2023-02-11T03:05:12.207Z,45.97
2023-02-11T03:07:49.067Z,41.25
2023-02-11T03:10:21.620Z,35.10
2023-02-11T03:12:49.507Z,41.85
2023-02-11T03:15:18.224Z,42.58
2023-02-11T03:17:48.546Z,44.95
2023-02-11T03:20:18.711Z,38.55
2023-02-11T03:22:50.777Z,39.83
2023-02-11T03:25:17.915Z,42.28
2023-02-11T03:27:52.093Z,34.03
2023-02-11T03:30:30.580Z,49.92
2023-02-11T03:33:34.606Z,38.17
2023-02-11T03:36:07.623Z,40.63
2023-02-11T03:38:38.250Z,41.28
2023-02-11T03:41:07.768Z,32.97
2023-02-11T03:43:42.813Z,33.25
2023-02-11T03:46:11.516Z,39.47
2023-02-11T03:48:42.327Z,36.03
2023-02-11T03:51:12.382Z,40.17
2023-02-11T03:53:42.924Z,34.45
2023-02-11T03:56:15.271Z,39.90
2023-02-11T03:58:44.468Z,34.90
2023-02-11T04:01:11.536Z,34.85
2023-02-11T04:03:38.336Z,34.08
2023-02-11T04:06:05.238Z,31.48
2023-02-11T04:08:32.807Z,34.97
2023-02-11T04:10:59.504Z,38.97
2023-02-11T04:13:26.330Z,38.72
2023-02-11T04:15:53.415Z,32.75
2023-02-11T04:18:20.424Z,31.25
2023-02-11T04:20:48.055Z,37.97
2023-02-11T04:23:14.724Z,24.45
2023-02-11T04:25:42.361Z,32.45
2023-02-11T04:28:09.075Z,32.47
2023-02-11T04:30:35.720Z,31.83
2023-02-11T04:33:02.370Z,36.78
2023-02-11T04:35:29.025Z,30.00
2023-02-11T04:37:55.643Z,30.40
2023-02-11T04:40:22.334Z,30.10
2023-02-11T04:42:48.962Z,35.03
2023-02-11T04:45:15.671Z,27.92
2023-02-11T04:47:42.314Z,28.92
2023-02-11T04:50:09.208Z,30.80
2023-02-11T04:52:35.874Z,32.08
2023-02-11T04:55:02.508Z,31.98
2023-02-11T04:57:29.133Z,31.92
2023-02-11T04:59:55.817Z,25.02
2023-02-11T05:02:22.794Z,30.13
2023-02-11T05:04:49.443Z,28.88
2023-02-11T05:07:16.238Z,25.27
2023-02-11T05:09:42.884Z,25.92
2023-02-11T05:12:09.675Z,33.55
2023-02-11T05:14:36.339Z,31.00
2023-02-11T05:17:03.079Z,29.58
2023-02-11T05:19:31.882Z,18.00
2023-02-11T05:22:02.999Z,32.80
2023-02-11T05:24:32.140Z,32.47
2023-02-11T05:26:59.192Z,26.02
2023-02-11T05:29:26.031Z,24.02
2023-02-11T05:31:53.089Z,32.83
2023-02-11T05:34:19.767Z,32.75
2023-02-11T05:36:46.409Z,28.60
2023-02-11T05:39:13.067Z,21.98
2023-02-11T05:41:39.756Z,27.95
2023-02-11T05:44:06.410Z,30.23
2023-02-11T05:46:33.106Z,23.73
2023-02-11T05:48:59.840Z,28.15
2023-02-11T05:51:26.518Z,24.60
2023-02-11T05:53:53.311Z,30.73
2023-02-11T05:56:20.013Z,28.70
2023-02-11T05:58:46.832Z,25.90
2023-02-11T06:01:13.520Z,24.60
2023-02-11T06:03:40.340Z,29.23
2023-02-11T06:06:11.855Z,23.25
2023-02-11T06:08:39.499Z,20.63
2023-02-11T06:11:06.217Z,23.90
2023-02-11T06:13:32.988Z,24.48
2023-02-11T06:16:01.370Z,23.00
2023-02-11T06:18:28.839Z,27.75
2023-02-11T06:20:55.576Z,22.95
2023-02-11T06:23:22.598Z,23.23
2023-02-11T06:25:50.100Z,27.52
2023-02-11T06:28:17.076Z,22.05
2023-02-11T06:30:43.873Z,26.23
2023-02-11T06:33:10.633Z,25.70
2023-02-11T06:35:40.335Z,25.42
2023-02-11T06:38:07.168Z,25.20
2023-02-11T06:40:33.846Z,20.42
2023-02-11T06:43:00.500Z,24.67
2023-02-11T06:45:27.155Z,20.80
2023-02-11T06:47:53.811Z,29.42
2023-02-11T06:50:20.536Z,27.75
2023-02-11T06:52:47.387Z,27.00
2023-02-11T06:55:14.285Z,23.40
2023-02-11T06:57:40.996Z,15.70
2023-02-11T07:00:08.440Z,25.08
2023-02-11T07:02:35.844Z,22.73
2023-02-11T07:05:02.332Z,25.02
2023-02-11T07:07:28.828Z,24.98
2023-02-11T07:09:55.303Z,20.85
2023-02-11T07:12:21.776Z,24.65
2023-02-11T07:14:48.245Z,26.52
2023-02-11T07:17:14.802Z,26.27
2023-02-11T07:19:41.352Z,21.38
2023-02-11T07:22:07.811Z,28.58
2023-02-11T07:24:34.285Z,23.13
2023-02-11T07:27:00.767Z,22.73
2023-02-11T07:29:27.403Z,25.40
2023-02-11T07:31:53.985Z,21.02
2023-02-11T07:34:20.572Z,22.73
2023-02-11T07:36:48.850Z,23.08
2023-02-11T07:39:15.436Z,22.30
2023-02-11T07:41:44.389Z,22.58
2023-02-11T07:44:10.886Z,25.60
2023-02-11T07:46:37.372Z,29.42
2023-02-11T07:49:04.211Z,26.33
2023-02-11T07:51:31.377Z,23.42
2023-02-11T07:53:59.202Z,20.05
2023-02-11T07:56:26.498Z,23.88
2023-02-11T07:58:53.029Z,24.13
2023-02-11T08:01:24.887Z,27.30
2023-02-11T08:03:51.827Z,21.98
2023-02-11T08:06:20.330Z,21.95
2023-02-11T08:08:47.147Z,25.40
2023-02-11T08:11:18.618Z,22.27
2023-02-11T08:13:45.443Z,23.90
2023-02-11T08:16:23.632Z,17.98
2023-02-11T08:18:51.256Z,21.00
2023-02-11T08:21:19.164Z,20.10
2023-02-11T08:23:46.433Z,21.77
2023-02-11T08:26:22.407Z,21.33
2023-02-11T08:28:51.019Z,16.90
2023-02-11T08:31:26.599Z,22.10
2023-02-11T08:33:54.650Z,26.92
2023-02-11T08:36:23.920Z,20.00
2023-02-11T08:38:50.385Z,17.70
2023-02-11T08:41:17.722Z,19.98
2023-02-11T08:43:45.390Z,22.02
2023-02-11T08:46:14.659Z,17.33
2023-02-11T08:48:41.139Z,21.45
2023-02-11T08:51:09.697Z,19.33
2023-02-11T08:53:36.780Z,19.27
2023-02-11T08:56:03.314Z,19.02
2023-02-11T08:58:29.865Z,19.92
2023-02-11T09:00:56.432Z,17.30
2023-02-11T09:03:23.115Z,17.27
2023-02-11T09:05:53.026Z,17.27
2023-02-11T09:08:20.716Z,16.10
2023-02-11T09:10:47.691Z,17.00
2023-02-11T09:13:14.536Z,14.77
2023-02-11T09:15:45.193Z,18.60
2023-02-11T09:18:12.304Z,22.88
2023-02-11T09:20:38.928Z,17.38
2023-02-11T09:23:05.575Z,14.70
2023-02-11T09:25:32.240Z,16.88
2023-02-11T09:27:58.924Z,19.75
2023-02-11T09:30:25.616Z,20.23
2023-02-11T09:32:52.243Z,23.02
2023-02-11T09:35:19.050Z,15.93
2023-02-11T09:37:45.727Z,12.98
2023-02-11T09:40:14.558Z,21.02
2023-02-11T09:43:11.622Z,16.63
2023-02-11T09:45:38.468Z,14.40
2023-02-11T09:48:12.432Z,21.48
2023-02-11T09:50:44.150Z,16.80
2023-02-11T09:53:24.052Z,13.82
2023-02-11T09:56:00.197Z,15.40
2023-02-11T09:58:30.523Z,15.75
2023-02-11T10:01:25.137Z,13.98
2023-02-11T10:04:07.058Z,16.08
2023-02-11T10:06:41.492Z,7.85
2023-02-11T10:09:44.663Z,12.85
2023-02-11T10:12:44.592Z,17.00
2023-02-11T10:15:49.522Z,12.45
2023-02-11T10:18:28.088Z,12.82
2023-02-11T10:21:09.120Z,12.50
2023-02-11T10:23:39.669Z,13.73
2023-02-11T10:26:13.200Z,11.63
2023-02-11T10:28:50.203Z,13.50
2023-02-11T10:31:27.554Z,12.55
2023-02-11T10:34:00.411Z,11.82
2023-02-11T10:36:35.189Z,12.15
2023-02-11T10:39:16.549Z,14.23
2023-02-11T10:42:09.446Z,10.32
2023-02-11T10:44:41.520Z,11.50
2023-02-11T10:47:18.757Z,11.35
2023-02-11T10:49:48.999Z,12.82
2023-02-11T10:52:27.793Z,11.93
2023-02-11T10:55:14.321Z,12.07
2023-02-11T10:57:53.814Z,14.98
2023-02-11T11:00:42.368Z,10.75
2023-02-11T11:03:27.321Z,12.70
2023-02-11T11:06:01.892Z,10.93
2023-02-11T11:08:51.734Z,11.43
2023-02-11T11:11:23.985Z,20.88
2023-02-11T11:13:53.398Z,11.77
2023-02-11T11:16:21.981Z,18.33
2023-02-11T11:19:13.600Z,14.65
2023-02-11T11:21:49.171Z,19.27
2023-02-11T11:24:44.263Z,17.38
2023-02-11T11:27:19.243Z,16.98
2023-02-11T11:29:49.988Z,11.05
2023-02-11T11:32:32.686Z,16.90
2023-02-11T11:35:03.463Z,14.40
2023-02-11T11:37:33.028Z,14.05
2023-02-11T11:40:22.047Z,15.23
2023-02-11T11:43:04.216Z,22.70
2023-02-11T11:48:15.940Z,15.07
2023-02-11T11:50:44.667Z,23.80
2023-02-11T11:53:23.063Z,26.83
2023-02-11T11:56:09.772Z,22.63
2023-02-11T11:58:36.688Z,16.85
2023-02-11T12:01:09.288Z,17.75
2023-02-11T12:04:14.112Z,18.30
2023-02-11T12:07:13.182Z,14.23
2023-02-11T12:10:23.649Z,11.20
2023-02-11T12:13:07.014Z,16.15
2023-02-11T12:15:40.994Z,13.38
2023-02-11T12:18:32.868Z,17.80
2023-02-11T12:21:14.898Z,17.35
2023-02-11T12:23:59.972Z,12.63
2023-02-11T12:26:38.252Z,16.58
2023-02-11T12:29:24.027Z,21.92
2023-02-11T12:32:17.563Z,11.80
2023-02-11T12:35:19.504Z,14.38
2023-02-11T12:38:18.577Z,18.13
2023-02-11T12:41:10.132Z,20.70
2023-02-11T12:43:42.235Z,16.05
2023-02-11T12:46:33.798Z,16.58
2023-02-11T12:49:22.495Z,17.65
2023-02-11T12:52:11.316Z,14.38
2023-02-11T12:54:56.273Z,15.20
2023-02-11T12:57:26.603Z,15.85
2023-02-11T13:00:00.552Z,14.02
2023-02-11T13:02:36.958Z,11.02
2023-02-11T13:05:28.499Z,15.27
2023-02-11T13:08:02.844Z,14.90
2023-02-11T13:10:36.032Z,15.65
2023-02-11T13:13:18.787Z,13.70
2023-02-11T13:16:03.895Z,17.98
2023-02-11T13:18:40.075Z,12.98
2023-02-11T13:21:16.210Z,14.27
2023-02-11T13:23:59.763Z,8.98
2023-02-11T13:26:40.566Z,13.75
2023-02-11T13:29:33.149Z,17.38
2023-02-11T13:32:09.540Z,7.30
2023-02-11T13:34:42.334Z,10.48
2023-02-11T13:37:29.378Z,9.95
2023-02-11T13:40:18.944Z,10.18
2023-02-11T13:42:56.149Z,10.43
2023-02-11T13:45:38.431Z,11.40
2023-02-11T13:48:15.394Z,11.75
2023-02-11T13:50:51.815Z,11.68
2023-02-11T13:53:19.194Z,12.02
2023-02-11T13:55:48.968Z,8.43
2023-02-11T14:03:50.937Z,9.63
2023-02-11T14:06:43.371Z,15.45
2023-02-11T14:09:10.089Z,10.95
2023-02-11T14:12:20.719Z,11.38
2023-02-11T14:15:07.731Z,9.32
2023-02-11T14:17:34.966Z,11.32
2023-02-11T14:20:04.574Z,7.97
2023-02-11T14:22:47.174Z,9.20
2023-02-11T14:25:25.277Z,9.90
2023-02-11T14:28:25.762Z,12.70
2023-02-11T14:31:03.671Z,15.68
2023-02-11T14:33:51.468Z,12.77
2023-02-11T14:36:30.493Z,13.57
2023-02-11T14:39:13.714Z,11.43
2023-02-11T14:41:52.926Z,9.85
2023-02-11T14:44:25.148Z,12.35
2023-02-11T14:46:53.653Z,11.38
2023-02-11T14:49:30.775Z,14.35
2023-02-11T14:52:17.003Z,10.73
2023-02-11T14:54:44.812Z,8.70
2023-02-11T14:57:15.827Z,13.02
2023-02-11T15:00:02.357Z,11.93
2023-02-11T15:02:37.514Z,12.55
2023-02-11T15:05:26.483Z,16.20
2023-02-11T15:07:59.352Z,12.98
2023-02-11T15:10:32.790Z,8.85
2023-02-11T15:13:02.000Z,9.02
2023-02-11T15:15:29.446Z,12.75
2023-02-11T15:17:59.389Z,10.60
2023-02-11T15:20:29.030Z,13.18
2023-02-11T15:22:59.888Z,14.10
2023-02-11T15:25:28.058Z,10.25
2023-02-11T15:27:57.041Z,10.38
2023-02-11T15:30:23.725Z,15.35
2023-02-11T15:32:58.681Z,13.18
2023-02-11T15:35:28.482Z,6.82
2023-02-11T15:40:32.220Z,7.40
2023-02-11T15:43:09.978Z,9.50
2023-02-11T15:45:40.218Z,12.88
2023-02-11T15:48:12.536Z,8.88
2023-02-11T15:50:41.249Z,8.57
2023-02-11T15:53:26.448Z,9.25
2023-02-11T15:56:01.595Z,10.45
2023-02-11T15:58:28.540Z,5.72
2023-02-11T16:00:59.604Z,12.63
2023-02-11T16:03:32.758Z,8.65
2023-02-11T16:06:20.653Z,10.55
2023-02-11T16:08:58.918Z,9.52
2023-02-11T16:11:30.389Z,9.65
2023-02-11T16:13:59.044Z,6.20
2023-02-11T16:16:31.862Z,9.70
2023-02-11T16:19:06.274Z,11.18
2023-02-11T16:21:38.829Z,11.90
2023-02-11T16:24:07.861Z,8.45
2023-02-11T16:26:39.272Z,12.80
2023-02-11T16:29:11.347Z,5.72
2023-02-11T16:31:41.163Z,9.98
2023-02-11T16:36:46.110Z,11.38
2023-02-11T16:39:13.480Z,14.23
2023-02-11T16:41:40.596Z,8.20
2023-02-11T16:44:07.257Z,10.05
2023-02-11T16:46:34.340Z,11.73
2023-02-11T16:49:11.440Z,11.55
2023-02-11T16:51:39.933Z,12.75
2023-02-11T16:54:06.636Z,12.93
2023-02-11T16:56:33.254Z,21.02
2023-02-11T16:59:00.595Z,15.02
2023-02-11T17:01:27.535Z,13.93
2023-02-11T17:03:54.312Z,17.98
2023-02-11T17:06:20.971Z,14.07
2023-02-11T17:08:47.635Z,13.52
2023-02-11T17:11:16.658Z,10.43
2023-02-11T17:13:44.026Z,9.65
2023-02-11T17:16:18.120Z,15.20
2023-02-11T17:18:45.355Z,11.07
2023-02-11T17:21:15.523Z,14.80
2023-02-11T17:23:42.636Z,12.27
2023-02-11T17:26:09.328Z,11.18
2023-02-11T17:28:36.036Z,13.23
2023-02-11T17:31:07.631Z,14.75
2023-02-11T17:33:36.187Z,11.30
2023-02-11T17:36:07.776Z,6.57
2023-02-11T17:38:35.326Z,11.05
2023-02-11T17:41:03.063Z,9.60
2023-02-11T17:43:29.725Z,13.70
2023-02-11T17:45:56.585Z,10.73
2023-02-11T17:48:23.975Z,13.15
2023-02-11T17:50:50.994Z,10.48
2023-02-11T17:53:17.632Z,11.60
2023-02-11T17:55:44.260Z,10.18
2023-02-11T17:58:10.891Z,16.13
2023-02-11T18:00:37.559Z,10.77
2023-02-11T18:03:04.381Z,17.58
2023-02-11T18:05:37.546Z,11.75
2023-02-11T18:08:06.341Z,13.13
2023-02-11T18:10:33.755Z,11.65
2023-02-11T18:13:01.568Z,17.20
2023-02-11T18:15:28.282Z,14.15
2023-02-11T18:17:55.516Z,10.65
2023-02-11T18:20:22.193Z,13.35
2023-02-11T18:22:48.828Z,10.27
2023-02-11T18:25:16.044Z,9.68
2023-02-11T18:27:43.099Z,17.73
2023-02-11T18:30:19.505Z,15.90
2023-02-11T18:32:46.286Z,11.30
2023-02-11T18:35:15.150Z,9.13
2023-02-11T18:37:43.116Z,10.18
2023-02-11T18:40:10.950Z,10.73
2023-02-11T18:42:37.944Z,14.55
2023-02-11T18:45:12.118Z,17.13
2023-02-11T18:47:40.054Z,14.05
2023-02-11T18:50:11.159Z,15.13
2023-02-11T18:52:38.610Z,8.80
2023-02-11T18:55:06.109Z,10.40
2023-02-11T18:57:32.781Z,9.52
2023-02-11T18:59:59.432Z,10.75
2023-02-11T19:02:26.272Z,12.80
2023-02-11T19:04:52.913Z,13.23
2023-02-11T19:07:19.585Z,12.27
2023-02-11T19:09:46.217Z,16.55
2023-02-11T19:12:12.882Z,10.95
2023-02-11T19:14:39.531Z,15.95
2023-02-11T19:17:07.570Z,11.63
2023-02-11T19:19:35.539Z,14.40
2023-02-11T19:22:03.506Z,14.68
2023-02-11T19:24:30.556Z,11.50
2023-02-11T19:27:00.393Z,14.45
2023-02-11T19:29:27.616Z,9.88
2023-02-11T19:31:54.595Z,11.90
2023-02-11T19:34:21.592Z,14.70
2023-02-11T19:36:49.506Z,10.10
2023-02-11T19:39:16.807Z,11.85
2023-02-11T19:41:43.483Z,13.30
2023-02-11T19:44:10.434Z,12.50
2023-02-11T19:46:40.731Z,16.25
2023-02-11T19:49:07.692Z,13.93
2023-02-11T19:51:36.822Z,12.52
2023-02-11T19:54:03.671Z,12.75
2023-02-11T19:56:30.280Z,16.83
2023-02-11T19:58:57.324Z,14.43
2023-02-11T20:01:25.580Z,14.55
2023-02-11T20:03:54.870Z,15.20
2023-02-11T20:06:27.973Z,12.82
2023-02-11T20:09:00.074Z,12.82
2023-02-11T20:11:29.645Z,17.13
2023-02-11T20:13:57.021Z,13.73
2023-02-11T20:16:40.683Z,14.50
2023-02-11T20:19:16.693Z,14.98
2023-02-11T20:21:46.701Z,16.48
2023-02-11T20:24:13.992Z,17.65
2023-02-11T20:26:42.261Z,17.52
2023-02-11T20:29:09.663Z,12.95
2023-02-11T20:31:36.676Z,14.88
2023-02-11T20:34:03.419Z,14.13
2023-02-11T20:36:34.058Z,15.20
2023-02-11T20:39:02.202Z,13.45
2023-02-11T20:41:34.070Z,17.90
2023-02-11T20:44:04.122Z,16.67
2023-02-11T20:46:33.128Z,19.05
2023-02-11T20:49:01.017Z,16.13
2023-02-11T20:51:31.440Z,17.88
2023-02-11T20:53:58.443Z,21.48
2023-02-11T20:56:28.794Z,16.90
2023-02-11T20:58:57.598Z,17.58
2023-02-11T21:01:27.091Z,18.13
2023-02-11T21:03:59.276Z,15.32
2023-02-11T21:06:30.951Z,20.40
2023-02-11T21:08:57.623Z,17.42
2023-02-11T21:11:24.277Z,22.48
2023-02-11T21:13:51.039Z,15.98
2023-02-11T21:16:22.498Z,15.65
2023-02-11T21:18:50.320Z,17.75
2023-02-11T21:21:18.602Z,14.98
2023-02-11T21:23:45.923Z,22.35
2023-02-11T21:26:15.078Z,24.58
2023-02-11T21:28:41.873Z,15.90
2023-02-11T21:31:09.680Z,20.48
2023-02-11T21:33:36.400Z,15.45
2023-02-11T21:36:04.394Z,17.52
2023-02-11T21:38:31.154Z,30.83
2023-02-11T21:41:05.547Z,20.27
2023-02-11T21:43:32.590Z,15.85
2023-02-11T21:45:59.538Z,18.75
2023-02-11T21:48:26.684Z,20.83
2023-02-11T21:50:53.877Z,17.08
2023-02-11T21:53:20.500Z,18.60
2023-02-11T21:55:47.166Z,18.05
2023-02-11T21:58:14.253Z,18.40
2023-02-11T22:00:40.984Z,17.42
2023-02-11T22:03:07.835Z,17.63
2023-02-11T22:05:34.446Z,20.33
2023-02-11T22:08:01.103Z,18.98
2023-02-11T22:10:27.777Z,20.65
2023-02-11T22:12:54.413Z,17.70
2023-02-11T22:15:21.097Z,17.60
2023-02-11T22:17:47.749Z,17.90
2023-02-11T22:20:16.777Z,22.33
2023-02-11T22:22:43.436Z,21.35
2023-02-11T22:25:10.140Z,17.00
2023-02-11T22:27:36.835Z,17.05
2023-02-11T22:30:04.624Z,15.70
2023-02-11T22:32:31.262Z,16.88
2023-02-11T22:34:57.904Z,19.33
2023-02-11T22:37:24.508Z,18.02
2023-02-11T22:39:51.154Z,17.38
2023-02-11T22:42:17.818Z,14.00
2023-02-11T22:44:44.771Z,19.48
2023-02-11T22:47:11.437Z,12.98
2023-02-11T22:49:39.451Z,12.05
2023-02-11T22:52:06.096Z,16.17
2023-02-11T22:54:32.772Z,15.50
2023-02-11T22:56:59.420Z,13.73
2023-02-11T22:59:26.033Z,12.77
2023-02-11T23:01:52.784Z,11.30
2023-02-11T23:04:19.542Z,15.70
2023-02-11T23:06:47.694Z,11.52
2023-02-11T23:09:14.435Z,13.60
2023-02-11T23:11:41.513Z,14.40
2023-02-11T23:14:10.007Z,15.70
2023-02-11T23:16:36.718Z,13.15
2023-02-11T23:19:06.406Z,13.85
2023-02-11T23:21:36.594Z,12.20
2023-02-11T23:24:10.141Z,12.23
2023-02-11T23:26:39.201Z,12.75
2023-02-11T23:29:06.195Z,12.52
2023-02-11T23:31:37.408Z,13.07
2023-02-11T23:34:04.554Z,13.25
2023-02-11T23:36:32.256Z,13.27
2023-02-11T23:38:58.977Z,11.27
2023-02-11T23:41:26.134Z,12.23
2023-02-11T23:43:55.157Z,11.80
2023-02-11T23:46:23.803Z,8.52
2023-02-11T23:48:51.501Z,10.45
2023-02-11T23:51:18.765Z,11.65
2023-02-11T23:53:46.144Z,7.80
2023-02-11T23:56:19.908Z,10.80
2023-02-11T23:58:51.454Z,12.63
